createdAt,value
2019-02-12T00:00:41.179Z,2.07
2019-02-12T00:03:10.213Z,1.20
2019-02-12T00:05:39.152Z,1.40
2019-02-12T00:08:08.063Z,1.43
2019-02-12T00:10:36.997Z,1.80
2019-02-12T00:13:05.858Z,0.97
2019-02-12T00:15:34.789Z,1.80
2019-02-12T00:18:03.713Z,1.47
2019-02-12T00:20:32.576Z,1.90
2019-02-12T00:23:01.494Z,2.13
2019-02-12T00:25:30.521Z,1.23
2019-02-12T00:27:59.447Z,1.10
2019-02-12T00:30:28.398Z,1.70
2019-02-12T00:32:57.260Z,2.07
2019-02-12T00:35:26.268Z,1.50
2019-02-12T00:37:55.118Z,1.80
2019-02-12T00:42:53.837Z,1.50
2019-02-12T00:45:23.813Z,1.60
2019-02-12T00:47:52.835Z,1.33
2019-02-12T00:50:21.766Z,1.60
2019-02-12T00:52:50.754Z,2.20
2019-02-12T00:55:19.623Z,1.80
2019-02-12T00:57:48.537Z,1.70
2019-02-12T01:00:17.489Z,2.10
2019-02-12T01:02:46.349Z,2.73
2019-02-12T01:05:15.266Z,2.33
2019-02-12T01:07:44.209Z,2.43
2019-02-12T01:10:13.213Z,2.00
2019-02-12T01:12:42.062Z,2.10
2019-02-12T01:15:12.570Z,2.00
2019-02-12T01:17:41.572Z,1.80
2019-02-12T01:20:12.215Z,1.43
2019-02-12T01:22:46.321Z,1.40
2019-02-12T01:25:15.189Z,1.73
2019-02-12T01:27:44.069Z,1.50
2019-02-12T01:30:17.223Z,1.60
2019-02-12T01:32:46.309Z,1.73
2019-02-12T01:35:15.179Z,1.50
2019-02-12T01:37:44.157Z,1.10
2019-02-12T01:40:13.946Z,1.47
2019-02-12T01:42:42.911Z,1.23
2019-02-12T01:45:13.049Z,1.37
2019-02-12T01:47:41.965Z,1.57
2019-02-12T01:50:12.750Z,1.23
2019-02-12T01:52:41.617Z,1.40
2019-02-12T01:55:10.587Z,1.13
2019-02-12T01:57:39.507Z,1.73
2019-02-12T02:00:10.807Z,1.37
2019-02-12T02:02:39.706Z,1.10
2019-02-12T02:05:09.183Z,1.17
2019-02-12T02:07:38.121Z,1.30
2019-02-12T02:10:08.398Z,1.20
2019-02-12T02:12:37.322Z,1.23
2019-02-12T02:15:08.149Z,2.17
2019-02-12T02:17:37.367Z,1.53
2019-02-12T02:20:07.094Z,0.87
2019-02-12T02:22:36.094Z,1.00
2019-02-12T02:25:05.219Z,1.20
2019-02-12T02:27:34.137Z,1.40
2019-02-12T02:30:03.309Z,0.93
2019-02-12T02:32:32.160Z,1.40
2019-02-12T02:35:01.074Z,1.10
2019-02-12T02:37:29.915Z,0.90
2019-02-12T02:39:58.747Z,0.83
2019-02-12T02:42:27.715Z,1.40
2019-02-12T02:44:56.552Z,1.37
2019-02-12T02:47:25.474Z,1.07
2019-02-12T02:49:54.291Z,0.90
2019-02-12T02:52:23.149Z,1.17
2019-02-12T02:54:52.081Z,1.83
2019-02-12T02:57:21.015Z,1.03
2019-02-12T02:59:49.840Z,1.63
2019-02-12T03:02:18.687Z,1.30
2019-02-12T03:04:47.533Z,1.57
2019-02-12T03:07:16.542Z,1.53
2019-02-12T03:09:45.396Z,0.83
2019-02-12T03:12:14.336Z,1.37
2019-02-12T03:14:43.268Z,2.00
2019-02-12T03:17:12.847Z,1.80
2019-02-12T03:19:44.057Z,1.30
2019-02-12T03:22:13.391Z,1.30
2019-02-12T03:24:42.912Z,1.50
2019-02-12T03:27:12.007Z,1.00
2019-02-12T03:29:40.997Z,1.33
2019-02-12T03:32:10.034Z,1.27
2019-02-12T03:34:39.132Z,1.20
2019-02-12T03:37:08.201Z,1.60
2019-02-12T03:39:37.201Z,1.20
2019-02-12T03:42:06.425Z,1.37
2019-02-12T03:44:35.899Z,1.43
2019-02-12T03:47:05.715Z,1.30
2019-02-12T03:49:35.009Z,1.23
2019-02-12T03:52:12.661Z,1.20
2019-02-12T03:54:35.198Z,1.57
2019-02-12T03:57:04.102Z,1.23
2019-02-12T03:59:33.133Z,1.43
2019-02-12T04:02:02.110Z,1.47
2019-02-12T04:04:31.103Z,1.20
2019-02-12T04:07:00.007Z,1.33
2019-02-12T04:09:28.957Z,1.23
2019-02-12T04:11:57.854Z,1.20
2019-02-12T04:14:26.785Z,1.20
2019-02-12T04:16:55.623Z,1.00
2019-02-12T04:19:24.534Z,1.53
2019-02-12T04:21:53.387Z,1.30
2019-02-12T04:24:22.243Z,1.37
2019-02-12T04:26:51.079Z,1.67
2019-02-12T04:29:20.331Z,0.97
2019-02-12T04:31:49.206Z,1.30
2019-02-12T04:34:18.123Z,1.77
2019-02-12T04:36:46.975Z,1.20
2019-02-12T04:39:15.823Z,1.00
2019-02-12T04:41:44.658Z,1.80
2019-02-12T04:44:13.514Z,1.43
2019-02-12T04:46:42.395Z,0.73
2019-02-12T04:49:11.265Z,1.07
2019-02-12T04:51:40.199Z,2.47
2019-02-12T04:54:09.051Z,1.67
2019-02-12T04:56:37.892Z,1.40
2019-02-12T04:59:06.794Z,1.20
2019-02-12T05:01:35.667Z,1.20
2019-02-12T05:04:04.573Z,1.30
2019-02-12T05:06:33.461Z,1.70
2019-02-12T05:09:17.082Z,1.27
2019-02-12T05:11:52.312Z,1.27
2019-02-12T05:14:21.634Z,1.20
2019-02-12T05:16:50.837Z,1.80
2019-02-12T05:19:20.154Z,1.90
2019-02-12T05:21:49.349Z,1.50
2019-02-12T05:24:18.771Z,1.50
2019-02-12T05:26:48.067Z,1.43
2019-02-12T05:29:18.398Z,1.67
2019-02-12T05:31:47.437Z,1.50
2019-02-12T05:34:16.306Z,1.27
2019-02-12T05:36:45.151Z,1.33
2019-02-12T05:39:14.045Z,1.20
2019-02-12T05:41:42.952Z,1.80
2019-02-12T05:44:11.840Z,0.80
2019-02-12T05:46:40.750Z,1.33
2019-02-12T05:49:09.702Z,1.17
2019-02-12T05:51:38.545Z,1.10
2019-02-12T05:54:07.533Z,1.27
2019-02-12T05:56:36.425Z,1.13
2019-02-12T05:59:05.392Z,1.57
2019-02-12T06:01:34.252Z,1.00
2019-02-12T06:04:03.111Z,1.60
2019-02-12T06:06:32.055Z,1.03
2019-02-12T06:09:00.989Z,2.70
2019-02-12T06:11:29.958Z,1.33
2019-02-12T06:13:58.925Z,1.30
2019-02-12T06:16:27.903Z,1.17
2019-02-12T06:18:56.863Z,1.37
2019-02-12T06:21:25.718Z,1.40
2019-02-12T06:23:55.073Z,1.57
2019-02-12T06:26:24.050Z,1.57
2019-02-12T06:28:52.876Z,1.33
2019-02-12T06:31:21.806Z,1.40
2019-02-12T06:33:50.718Z,1.57
2019-02-12T06:36:19.591Z,1.40
2019-02-12T06:38:48.464Z,2.20
2019-02-12T06:41:17.351Z,1.80
2019-02-12T06:43:46.188Z,2.10
2019-02-12T06:46:15.126Z,2.77
2019-02-12T06:48:44.066Z,1.50
2019-02-12T06:51:12.987Z,2.90
2019-02-12T06:53:41.830Z,2.10
2019-02-12T06:56:10.791Z,2.73
2019-02-12T06:58:39.933Z,2.40
2019-02-12T07:01:08.867Z,1.97
2019-02-12T07:03:53.094Z,1.90
2019-02-12T07:06:35.930Z,2.27
2019-02-12T07:09:29.263Z,1.50
2019-02-12T07:12:31.223Z,1.90
2019-02-12T07:15:11.412Z,1.60
2019-02-12T07:17:56.558Z,1.90
2019-02-12T07:21:00.966Z,1.43
2019-02-12T07:24:13.758Z,1.87
2019-02-12T07:27:07.232Z,1.90
2019-02-12T07:29:50.514Z,1.83
2019-02-12T07:32:40.965Z,1.37
2019-02-12T07:35:50.126Z,1.43
2019-02-12T07:39:12.398Z,1.07
2019-02-12T07:42:19.415Z,1.70
2019-02-12T07:45:33.383Z,1.20
2019-02-12T07:48:37.776Z,1.07
2019-02-12T07:51:40.918Z,1.30
2019-02-12T07:54:35.976Z,1.27
2019-02-12T07:57:31.407Z,1.30
2019-02-12T08:00:10.695Z,1.70
2019-02-12T08:03:10.292Z,1.23
2019-02-12T08:06:10.134Z,1.63
2019-02-12T08:09:16.185Z,1.30
2019-02-12T08:12:20.689Z,1.20
2019-02-12T08:15:15.918Z,1.60
2019-02-12T08:18:08.988Z,1.40
2019-02-12T08:21:18.434Z,1.83
2019-02-12T08:24:23.414Z,1.40
2019-02-12T08:27:26.510Z,1.20
2019-02-12T08:30:05.465Z,1.40
2019-02-12T08:32:56.710Z,1.47
2019-02-12T08:36:14.148Z,1.30
2019-02-12T08:39:20.494Z,1.50
2019-02-12T08:42:40.840Z,1.27
2019-02-12T08:45:21.102Z,1.23
2019-02-12T08:48:23.537Z,2.40
2019-02-12T08:51:03.110Z,1.47
2019-02-12T08:54:02.603Z,2.27
2019-02-12T08:57:15.987Z,2.27
2019-02-12T09:00:15.108Z,2.43
2019-02-12T09:03:34.457Z,3.07
2019-02-12T09:06:39.647Z,2.47
2019-02-12T09:09:38.871Z,2.40
2019-02-12T09:12:30.413Z,1.57
2019-02-12T09:15:26.034Z,1.60
2019-02-12T09:18:43.996Z,2.63
2019-02-12T09:21:23.676Z,2.10
2019-02-12T09:24:12.987Z,3.57
2019-02-12T09:27:10.553Z,3.00
2019-02-12T09:30:25.988Z,3.37
2019-02-12T09:33:08.836Z,1.70
2019-02-12T09:36:09.376Z,1.57
2019-02-12T09:39:18.330Z,1.30
2019-02-12T09:42:17.579Z,1.30
2019-02-12T09:45:16.983Z,1.30
2019-02-12T09:47:55.624Z,2.20
2019-02-12T09:51:18.214Z,1.60
2019-02-12T09:54:10.247Z,1.27
2019-02-12T09:57:02.289Z,1.17
2019-02-12T10:00:11.278Z,1.17
2019-02-12T10:03:31.251Z,1.60
2019-02-12T10:06:27.602Z,1.97
2019-02-12T10:09:32.167Z,1.40
2019-02-12T10:12:19.082Z,1.63
2019-02-12T10:14:59.857Z,1.50
2019-02-12T10:18:00.886Z,0.93
2019-02-12T10:21:23.086Z,1.50
2019-02-12T10:24:31.330Z,1.30
2019-02-12T10:27:42.460Z,1.23
2019-02-12T10:30:22.315Z,1.30
2019-02-12T10:32:51.165Z,1.60
2019-02-12T10:35:20.118Z,1.37
2019-02-12T10:37:48.965Z,1.87
2019-02-12T10:40:17.869Z,1.40
2019-02-12T10:42:46.970Z,1.47
2019-02-12T10:45:16.011Z,2.13
2019-02-12T10:47:44.949Z,1.53
2019-02-12T10:50:13.959Z,1.40
2019-02-12T10:52:42.802Z,1.30
2019-02-12T10:55:11.828Z,1.60
2019-02-12T10:57:40.651Z,1.50
2019-02-12T11:00:12.291Z,1.67
2019-02-12T11:02:41.302Z,1.33
2019-02-12T11:05:10.322Z,1.10
2019-02-12T11:07:39.208Z,1.30
2019-02-12T11:10:08.553Z,3.23
2019-02-12T11:12:37.394Z,1.67
2019-02-12T11:15:06.828Z,1.97
2019-02-12T11:17:35.683Z,1.83
2019-02-12T11:20:05.098Z,1.13
2019-02-12T11:22:33.950Z,1.40
2019-02-12T11:25:02.818Z,1.50
2019-02-12T11:27:31.815Z,1.33
2019-02-12T11:30:00.690Z,1.80
2019-02-12T11:32:29.610Z,1.13
2019-02-12T11:34:58.483Z,2.90
2019-02-12T11:37:27.641Z,3.17
2019-02-12T11:39:56.581Z,1.63
2019-02-12T11:42:25.439Z,1.73
2019-02-12T11:44:54.306Z,2.23
2019-02-12T11:47:23.178Z,1.47
2019-02-12T11:49:52.034Z,1.50
2019-02-12T11:52:20.894Z,1.83
2019-02-12T11:54:49.803Z,1.40
2019-02-12T11:57:18.672Z,1.87
2019-02-12T11:59:47.529Z,1.90
2019-02-12T12:02:16.411Z,2.47
2019-02-12T12:04:45.330Z,1.50
2019-02-12T12:07:14.271Z,1.40
2019-02-12T12:09:43.194Z,1.83
2019-02-12T12:12:12.037Z,2.33
2019-02-12T12:14:40.918Z,1.90
2019-02-12T12:17:09.858Z,1.80
2019-02-12T12:19:38.686Z,2.00
2019-02-12T12:22:07.661Z,2.53
2019-02-12T12:24:36.569Z,1.93
2019-02-12T12:27:05.637Z,2.87
2019-02-12T12:29:34.482Z,2.67
2019-02-12T12:32:03.541Z,1.57
2019-02-12T12:34:32.464Z,2.37
2019-02-12T12:37:01.333Z,2.27
2019-02-12T12:39:30.166Z,1.80
2019-02-12T12:41:59.098Z,2.40
2019-02-12T12:44:28.046Z,2.17
2019-02-12T12:46:56.899Z,2.40
2019-02-12T12:49:27.311Z,2.07
2019-02-12T12:51:56.252Z,2.63
2019-02-12T12:54:25.223Z,2.73
2019-02-12T12:56:54.175Z,2.00
2019-02-12T12:59:23.297Z,2.50
2019-02-12T13:01:52.222Z,1.70
2019-02-12T13:04:21.137Z,2.47
2019-02-12T13:06:50.106Z,1.90
2019-02-12T13:09:18.960Z,2.17
2019-02-12T13:11:47.878Z,1.50
2019-02-12T13:14:16.804Z,1.97
2019-02-12T13:16:45.674Z,1.63
2019-02-12T13:19:14.560Z,2.57
2019-02-12T13:21:43.428Z,1.67
2019-02-12T13:24:12.274Z,2.10
2019-02-12T13:26:41.121Z,2.27
2019-02-12T13:29:09.970Z,1.93
2019-02-12T13:31:38.866Z,2.17
2019-02-12T13:34:07.858Z,2.47
2019-02-12T13:36:36.734Z,2.13
2019-02-12T13:39:06.796Z,2.27
2019-02-12T13:41:35.773Z,1.90
2019-02-12T13:44:12.019Z,1.93
2019-02-12T13:46:41.168Z,2.10
2019-02-12T13:49:12.718Z,3.30
2019-02-12T13:51:41.619Z,2.50
2019-02-12T13:54:10.776Z,3.57
2019-02-12T13:56:39.679Z,3.43
2019-02-12T13:59:08.598Z,3.20
2019-02-12T14:01:37.888Z,3.17
2019-02-12T14:04:06.862Z,3.17
2019-02-12T14:06:35.941Z,4.03
2019-02-12T14:09:05.790Z,3.40
2019-02-12T14:11:34.731Z,3.43
2019-02-12T14:14:03.626Z,3.87
2019-02-12T14:16:32.479Z,3.13
2019-02-12T14:19:01.352Z,3.63
2019-02-12T14:21:30.243Z,4.10
2019-02-12T14:23:59.110Z,7.73
2019-02-12T14:26:27.947Z,8.37
2019-02-12T14:28:57.101Z,3.00
2019-02-12T14:31:26.047Z,6.13
2019-02-12T14:33:55.170Z,3.43
2019-02-12T14:36:24.004Z,3.93
2019-02-12T14:38:53.452Z,3.50
2019-02-12T14:41:22.534Z,4.07
2019-02-12T14:43:51.390Z,3.07
2019-02-12T14:46:20.246Z,3.83
2019-02-12T14:48:49.093Z,4.10
2019-02-12T14:51:18.010Z,3.37
2019-02-12T14:53:46.862Z,4.33
2019-02-12T14:56:15.770Z,3.27
2019-02-12T14:58:44.779Z,3.60
2019-02-12T15:01:13.733Z,3.90
2019-02-12T15:03:42.622Z,4.10
2019-02-12T15:06:11.582Z,3.80
2019-02-12T15:08:40.557Z,3.57
2019-02-12T15:11:09.578Z,3.70
2019-02-12T15:13:38.453Z,4.07
2019-02-12T15:16:07.377Z,3.40
2019-02-12T15:18:36.509Z,3.03
2019-02-12T15:21:05.518Z,3.50
2019-02-12T15:23:34.395Z,3.50
2019-02-12T15:26:03.325Z,3.27
2019-02-12T15:28:32.345Z,3.13
2019-02-12T15:31:01.198Z,3.20
2019-02-12T15:33:30.182Z,4.20
2019-02-12T15:35:59.073Z,3.17
2019-02-12T15:38:28.007Z,4.00
2019-02-12T15:40:56.940Z,4.00
2019-02-12T15:43:25.854Z,3.70
2019-02-12T15:45:54.793Z,4.30
2019-02-12T15:48:23.798Z,3.77
2019-02-12T15:50:52.666Z,4.20
2019-02-12T15:53:23.053Z,4.27
2019-02-12T15:55:51.954Z,4.33
2019-02-12T15:58:26.360Z,4.47
2019-02-12T16:00:55.562Z,3.43
2019-02-12T16:03:24.524Z,2.80
2019-02-12T16:05:56.617Z,4.03
2019-02-12T16:08:30.493Z,3.03
2019-02-12T16:10:59.563Z,4.47
2019-02-12T16:13:30.152Z,3.70
2019-02-12T16:15:59.339Z,3.67
2019-02-12T16:18:28.187Z,3.80
2019-02-12T16:20:57.058Z,4.47
2019-02-12T16:23:25.998Z,4.33
2019-02-12T16:25:59.567Z,3.63
2019-02-12T16:28:25.631Z,3.70
2019-02-12T16:30:57.006Z,4.27
2019-02-12T16:33:26.020Z,3.63
2019-02-12T16:35:54.907Z,4.33
2019-02-12T16:38:24.767Z,4.67
2019-02-12T16:40:54.104Z,4.07
2019-02-12T16:43:28.170Z,4.23
2019-02-12T16:46:03.538Z,4.23
2019-02-12T16:48:32.358Z,3.60
2019-02-12T16:51:01.289Z,4.30
2019-02-12T16:53:30.211Z,4.10
2019-02-12T16:55:59.122Z,4.60
2019-02-12T16:58:28.084Z,4.57
2019-02-12T17:00:57.001Z,5.70
2019-02-12T17:03:26.753Z,5.50
2019-02-12T17:05:59.159Z,6.70
2019-02-12T17:08:28.147Z,5.27
2019-02-12T17:10:57.079Z,5.83
2019-02-12T17:13:26.092Z,6.63
2019-02-12T17:15:55.138Z,6.33
2019-02-12T17:18:23.987Z,5.77
2019-02-12T17:20:52.852Z,5.23
2019-02-12T17:23:21.770Z,6.60
2019-02-12T17:25:50.646Z,6.93
2019-02-12T17:28:19.669Z,7.30
2019-02-12T17:30:48.550Z,8.37
2019-02-12T17:33:18.058Z,7.00
2019-02-12T17:35:46.974Z,7.33
2019-02-12T17:38:16.234Z,6.63
2019-02-12T17:40:45.277Z,6.23
2019-02-12T17:43:14.246Z,6.57
2019-02-12T17:45:45.367Z,7.03
2019-02-12T17:48:14.253Z,7.00
2019-02-12T17:50:43.095Z,7.20
2019-02-12T17:53:11.987Z,7.57
2019-02-12T17:55:40.972Z,7.73
2019-02-12T17:58:09.919Z,7.67
2019-02-12T18:00:42.878Z,7.83
2019-02-12T18:03:13.444Z,7.57
2019-02-12T18:05:42.606Z,8.53
2019-02-12T18:08:11.531Z,8.67
2019-02-12T18:10:40.355Z,8.67
2019-02-12T18:13:09.512Z,8.57
2019-02-12T18:15:40.924Z,8.13
2019-02-12T18:18:09.925Z,7.77
2019-02-12T18:20:38.970Z,9.00
2019-02-12T18:23:08.063Z,8.87
2019-02-12T18:25:37.157Z,8.63
2019-02-12T18:28:06.183Z,8.17
2019-02-12T18:30:35.930Z,8.03
2019-02-12T18:33:04.945Z,9.67
2019-02-12T18:35:33.870Z,8.80
2019-02-12T18:38:03.026Z,8.53
2019-02-12T18:40:32.146Z,10.17
2019-02-12T18:43:01.095Z,8.50
2019-02-12T18:45:30.398Z,9.27
2019-02-12T18:47:59.623Z,9.60
2019-02-12T18:50:28.775Z,9.30
2019-02-12T18:52:57.846Z,8.70
2019-02-12T18:55:26.965Z,8.90
2019-02-12T18:57:56.660Z,9.03
2019-02-12T19:00:26.038Z,9.07
2019-02-12T19:02:55.541Z,9.50
2019-02-12T19:05:27.180Z,8.83
2019-02-12T19:07:56.174Z,10.27
2019-02-12T19:10:25.429Z,8.63
2019-02-12T19:12:57.004Z,9.60
2019-02-12T19:15:27.207Z,8.77
2019-02-12T19:18:01.306Z,9.13
2019-02-12T19:20:31.084Z,9.03
2019-02-12T19:23:00.891Z,10.53
2019-02-12T19:25:31.515Z,9.37
2019-02-12T19:28:01.184Z,11.10
2019-02-12T19:30:31.610Z,9.87
2019-02-12T19:33:01.366Z,9.30
2019-02-12T19:35:32.101Z,10.20
2019-02-12T19:38:02.226Z,10.47
2019-02-12T19:40:35.223Z,9.50
2019-02-12T19:43:06.492Z,10.60
2019-02-12T19:45:36.160Z,9.83
2019-02-12T19:48:07.526Z,10.00
2019-02-12T19:50:37.121Z,8.93
2019-02-12T19:53:08.400Z,10.17
2019-02-12T19:55:38.098Z,9.90
2019-02-12T19:58:07.505Z,9.87
2019-02-12T20:00:38.437Z,10.60
2019-02-12T20:03:08.318Z,9.60
2019-02-12T20:05:38.163Z,9.43
2019-02-12T20:08:08.873Z,11.50
2019-02-12T20:10:39.595Z,9.30
2019-02-12T20:13:09.843Z,10.80
2019-02-12T20:15:43.732Z,10.07
2019-02-12T20:18:17.579Z,9.77
2019-02-12T20:20:51.916Z,10.30
2019-02-12T20:23:21.687Z,10.93
2019-02-12T20:25:51.350Z,10.53
2019-02-12T20:28:21.022Z,10.47
2019-02-12T20:30:51.970Z,11.23
2019-02-12T20:33:21.482Z,11.83
2019-02-12T20:38:30.119Z,10.93
2019-02-12T20:41:01.436Z,10.07
2019-02-12T20:43:31.266Z,12.87
2019-02-12T20:46:00.870Z,12.90
2019-02-12T20:48:30.621Z,11.80
2019-02-12T20:51:00.689Z,11.60
2019-02-12T20:53:32.531Z,11.87
2019-02-12T20:56:03.719Z,11.83
2019-02-12T20:58:33.645Z,11.30
2019-02-12T21:01:03.280Z,12.80
2019-02-12T21:03:34.956Z,11.90
2019-02-12T21:06:04.774Z,12.23
2019-02-12T21:08:34.571Z,12.57
2019-02-12T21:11:04.573Z,12.13
2019-02-12T21:13:34.397Z,13.23
2019-02-12T21:16:04.510Z,12.37
2019-02-12T21:18:38.051Z,12.33
2019-02-12T21:21:07.691Z,12.73
2019-02-12T21:23:37.222Z,12.80
2019-02-12T21:26:06.837Z,13.97
2019-02-12T21:28:36.469Z,12.63
2019-02-12T21:31:06.202Z,12.57
2019-02-12T21:33:35.710Z,12.87
2019-02-12T21:36:05.251Z,12.87
2019-02-12T21:38:34.662Z,13.07
2019-02-12T21:41:04.384Z,20.83
2019-02-12T21:43:33.817Z,23.93
2019-02-12T21:46:03.777Z,12.63
2019-02-12T21:48:34.661Z,13.80
2019-02-12T21:51:04.322Z,12.17
2019-02-12T21:53:34.176Z,12.83
2019-02-12T21:56:04.573Z,13.27
2019-02-12T21:58:36.266Z,12.73
2019-02-12T22:01:08.399Z,13.03
2019-02-12T22:03:37.248Z,12.37
2019-02-12T22:06:06.246Z,13.97
2019-02-12T22:08:37.660Z,11.67
2019-02-12T22:11:08.497Z,12.17
2019-02-12T22:13:38.531Z,12.80
2019-02-12T22:16:07.621Z,13.37
2019-02-12T22:18:37.216Z,12.67
2019-02-12T22:21:07.703Z,14.13
2019-02-12T22:23:39.926Z,13.73
2019-02-12T22:26:09.685Z,12.70
2019-02-12T22:28:39.964Z,13.57
2019-02-12T22:31:08.952Z,13.33
2019-02-12T22:33:37.778Z,12.63
2019-02-12T22:36:07.884Z,12.67
2019-02-12T22:38:43.930Z,12.80
2019-02-12T22:41:12.958Z,12.30
2019-02-12T22:43:41.884Z,13.40
2019-02-12T22:46:13.024Z,12.90
2019-02-12T22:48:41.928Z,13.60
2019-02-12T22:51:10.819Z,13.43
2019-02-12T22:53:39.666Z,12.67
2019-02-12T22:56:08.548Z,11.57
2019-02-12T22:58:37.456Z,13.27
2019-02-12T23:01:10.058Z,11.90
2019-02-12T23:03:39.617Z,11.70
2019-02-12T23:06:09.538Z,12.10
2019-02-12T23:08:39.236Z,12.87
2019-02-12T23:11:12.442Z,12.10
2019-02-12T23:13:42.260Z,12.73
2019-02-12T23:16:12.178Z,12.60
2019-02-12T23:18:41.865Z,13.07
2019-02-12T23:21:11.475Z,12.03
2019-02-12T23:23:41.511Z,12.30
2019-02-12T23:26:11.648Z,13.97
2019-02-12T23:28:41.182Z,10.77
2019-02-12T23:31:11.780Z,12.57
2019-02-12T23:33:42.566Z,12.50
2019-02-12T23:36:12.753Z,11.83
2019-02-12T23:38:41.906Z,13.90
2019-02-12T23:41:10.817Z,12.47
2019-02-12T23:43:41.839Z,11.93
2019-02-12T23:46:10.878Z,15.07
2019-02-12T23:48:39.737Z,12.77
2019-02-12T23:51:08.750Z,12.43
2019-02-12T23:53:37.587Z,11.77
2019-02-12T23:56:06.902Z,12.77
2019-02-12T23:58:36.051Z,12.97
